Dades meteomassalio
Diari Summary for Abril 5, 2017 Units:  Metric    English   Both
« Previous Day
Next Day »
Diari Semanal Mensual Anual Personalitzat
  Maxima: Minima: Mijana:
Temperatura: -17.8 °C -12.7 °C -11 °C
Rosada: -17.8 °C -15.7 °C -14.4 °C
Humitat: Humidity % 48 % 66 %
Velocitat del vent: 0 km/h 0 km/h 27.4 km/h
Racha vent: 0 km/h - -
Vent:- - WNW
Pressio: 0 hPa 34496.6 hPa -
Pluja: 0 mm    
Historical Graphs
 
 
Tabular Data for Abril 5, 2017
Time Temperature Dew Point Pressure Wind Wind Speed Wind Gust Humidity Rainfall Rate (Hourly) solar Conditions
-17.8 °C -17.8 °C 0 hPa Calm     Humidity % 0 mm SolarRadiationWatts/m^2 W/m2 Conditions
00:04 -11 °C -15.1 °C 34645.6 hPa West 29.8 km/h 29.8 km/h 61 % 0 mm 0.0 W/m2 CLR
00:09 -11.1 °C -14.9 °C 34645.6 hPa WSW 32.8 km/h 32.8 km/h 62 % 0 mm 0.0 W/m2 CLR
00:14 -11.1 °C -15.1 °C 34645.6 hPa West 17.9 km/h 17.9 km/h 62 % 0 mm 0.0 W/m2 CLR
00:19 -11.2 °C -15.1 °C 34645.6 hPa Calm     62 % 0 mm 0.0 W/m2 CLR
00:24 -11.3 °C -15.1 °C 34645.6 hPa West 7.7 km/h 7.7 km/h 63 % 0 mm 0.0 W/m2 CLR
00:29 -11.4 °C -15.1 °C 34635.4 hPa WSW 9 km/h 9 km/h 64 % 0 mm 0.0 W/m2 CLR
00:34 -11.6 °C -15.1 °C 34635.4 hPa WSW 15 km/h 15 km/h 65 % 0 mm 0.0 W/m2 CLR
00:39 -11.6 °C -15.1 °C 34635.4 hPa WSW 20.9 km/h 20.9 km/h 65 % 0 mm 0.0 W/m2 CLR
00:44 -11.6 °C -15.2 °C 34635.4 hPa WSW 9 km/h 9 km/h 65 % 0 mm 0.0 W/m2 CLR
00:49 -11.7 °C -15.2 °C 34635.4 hPa WSW 9 km/h 9 km/h 65 % 0 mm 0.0 W/m2 CLR
00:54 -11.7 °C -15.2 °C 34635.4 hPa WSW 26.9 km/h 26.9 km/h 65 % 0 mm 0.0 W/m2 CLR
00:59 -11.6 °C -15.2 °C 34635.4 hPa WSW 29.8 km/h 29.8 km/h 65 % 0 mm 0.0 W/m2 CLR
01:04 -11.5 °C -15.1 °C 34635.4 hPa West 20.9 km/h 20.9 km/h 64 % 0 mm 0.0 W/m2 CLR
01:09 -11.5 °C -15.3 °C 34635.4 hPa Calm   0.3 km/h 63 % 0 mm 0.0 W/m2 CLR
01:14 -11.6 °C -15.2 °C 34635.4 hPa West 20.8 km/h 20.8 km/h 64 % 0 mm 0.0 W/m2 CLR
01:19 -11.7 °C -15.3 °C 34635.4 hPa WSW 23.3 km/h 23.3 km/h 64 % 0 mm 0.0 W/m2 CLR
01:24 -11.7 °C -15.4 °C 34635.4 hPa WSW 20.9 km/h 20.9 km/h 63 % 0 mm 0.0 W/m2 CLR
01:29 -11.7 °C -15.4 °C 34635.4 hPa West 20.9 km/h 20.9 km/h 63 % 0 mm 0.0 W/m2 CLR
01:34 -11.7 °C -15.5 °C 34635.4 hPa West 10.3 km/h 10.3 km/h 63 % 0 mm 0.0 W/m2 CLR
01:39 -11.8 °C -15.6 °C 34625.2 hPa SW 17.9 km/h 17.9 km/h 63 % 0 mm 0.0 W/m2 CLR
01:44 -11.8 °C -15.5 °C 34635.4 hPa WSW 23.8 km/h 23.8 km/h 64 % 0 mm 0.0 W/m2 CLR
01:49 -11.9 °C -15.6 °C 34625.2 hPa SW 9 km/h 9 km/h 64 % 0 mm 0.0 W/m2 CLR
01:54 -12 °C -15.6 °C 34625.2 hPa SW 6 km/h 6 km/h 64 % 0 mm 0.0 W/m2 CLR
01:59 -12.1 °C -15.6 °C 34625.2 hPa WSW 9 km/h 9 km/h 65 % 0 mm 0.0 W/m2 CLR
02:04 -12.1 °C -15.6 °C 34625.2 hPa WSW 9 km/h 9.7 km/h 65 % 0 mm 0.0 W/m2 CLR
02:09 -12.1 °C -15.6 °C 34625.2 hPa WSW 23.3 km/h 23.3 km/h 65 % 0 mm 0.0 W/m2 CLR
02:14 -12.1 °C -15.7 °C 34625.2 hPa WSW 15 km/h 15 km/h 64 % 0 mm 0.0 W/m2 CLR
02:19 -12.1 °C -15.7 °C 34611.7 hPa WSW 17.9 km/h 17.9 km/h 64 % 0 mm 0.0 W/m2 CLR
02:24 -12.1 °C -15.7 °C 34611.7 hPa West 6 km/h 6 km/h 64 % 0 mm 0.0 W/m2 CLR
02:29 -12.1 °C -15.7 °C 34611.7 hPa WSW 3.1 km/h 3.1 km/h 64 % 0 mm 0.0 W/m2 CLR
02:34 -12.1 °C -15.7 °C 34611.7 hPa WSW 11.9 km/h 11.9 km/h 64 % 0 mm 0.0 W/m2 CLR
02:39 -12.1 °C -15.7 °C 34611.7 hPa WSW 9 km/h 9 km/h 64 % 0 mm 0.0 W/m2 CLR
02:44 -12.1 °C -15.7 °C 34601.5 hPa WSW 9 km/h 9 km/h 64 % 0 mm 0.0 W/m2 CLR
02:49 -12.2 °C -15.7 °C 34601.5 hPa WSW 25.9 km/h 25.9 km/h 65 % 0 mm 0.0 W/m2 CLR
02:54 -12.2 °C -15.7 °C 34601.5 hPa WSW 15 km/h 16.3 km/h 65 % 0 mm 0.0 W/m2 CLR
02:59 -12.1 °C -15.6 °C 34601.5 hPa WSW 23.8 km/h 23.8 km/h 65 % 0 mm 0.0 W/m2 CLR
03:04 -12.1 °C -15.7 °C 34601.5 hPa West 25.9 km/h 25.9 km/h 64 % 0 mm 0.0 W/m2 CLR
03:09 -12 °C -15.6 °C 34601.5 hPa SW 23.8 km/h 23.8 km/h 64 % 0 mm 0.0 W/m2 CLR
03:15 -12 °C -15.7 °C 34601.5 hPa WSW 29.8 km/h 29.8 km/h 63 % 0 mm 0.0 W/m2 CLR
03:20 -11.9 °C -15.7 °C 34601.5 hPa West 23.3 km/h 23.3 km/h 63 % 0 mm 0.0 W/m2 CLR
03:25 -11.9 °C -15.7 °C 34591.4 hPa West 36.2 km/h 36.2 km/h 63 % 0 mm 0.0 W/m2 CLR
03:30 -11.9 °C -15.7 °C 34591.4 hPa West 26.9 km/h 26.9 km/h 63 % 0 mm 0.0 W/m2 CLR
03:35 -11.9 °C -15.7 °C 34591.4 hPa West 20.9 km/h 20.9 km/h 63 % 0 mm 0.0 W/m2 CLR
03:40 -12 °C -15.7 °C 34591.4 hPa SW 29.8 km/h 29.8 km/h 63 % 0 mm 0.0 W/m2 CLR
03:45 -12 °C -15.6 °C 34591.4 hPa WSW 26.9 km/h 26.9 km/h 64 % 0 mm 0.0 W/m2 CLR
03:50 -12.1 °C -15.7 °C 34591.4 hPa WSW 15.6 km/h 15.6 km/h 64 % 0 mm 0.0 W/m2 CLR
03:55 -12.1 °C -15.7 °C 34591.4 hPa WSW 11.9 km/h 11.9 km/h 64 % 0 mm 0.0 W/m2 CLR
04:00 -12.1 °C -15.7 °C 34591.4 hPa WSW 29.8 km/h 29.8 km/h 64 % 0 mm 0.0 W/m2 CLR
04:05 -12.1 °C -15.7 °C 34591.4 hPa West 15.6 km/h 15.6 km/h 64 % 0 mm 0.0 W/m2 CLR
04:10 -12.2 °C -15.7 °C 34591.4 hPa West 9 km/h 9 km/h 65 % 0 mm 0.0 W/m2 CLR
04:15 -12.2 °C -15.6 °C 34591.4 hPa WSW 26.9 km/h 26.9 km/h 66 % 0 mm 0.0 W/m2 CLR
04:20 -12.2 °C -15.6 °C 34577.8 hPa West 29.8 km/h 29.8 km/h 66 % 0 mm 0.0 W/m2 CLR
04:25 -12.1 °C -15.5 °C 34577.8 hPa SSW 29.8 km/h 29.8 km/h 66 % 0 mm 0.0 W/m2 CLR
04:30 -12.2 °C -15.6 °C 34577.8 hPa West 15.6 km/h 18.2 km/h 66 % 0 mm 0.0 W/m2 CLR
04:35 -12.2 °C -15.6 °C 34577.8 hPa SW 9 km/h 9 km/h 66 % 0 mm 0.0 W/m2 CLR
04:40 -12.3 °C -15.6 °C 34577.8 hPa WSW 6 km/h 6 km/h 67 % 0 mm 0.0 W/m2 CLR
04:45 -12.3 °C -15.4 °C 34577.8 hPa WSW 23.3 km/h 23.3 km/h 68 % 0 mm 0.0 W/m2 CLR
04:50 -12.3 °C -15.4 °C 34577.8 hPa SW 6 km/h 6 km/h 68 % 0 mm 0.0 W/m2 CLR
04:55 -12.4 °C -15.5 °C 34577.8 hPa WSW 9 km/h 9 km/h 68 % 0 mm 0.0 W/m2 CLR
05:00 -12.5 °C -15.5 °C 34577.8 hPa SW 18.2 km/h 18.2 km/h 69 % 0 mm 0.0 W/m2 CLR
05:05 -12.4 °C -15.2 °C 34567.7 hPa WSW 17.9 km/h 17.9 km/h 71 % 0 mm 0.0 W/m2 CLR
05:10 -12.4 °C -15.2 °C 34567.7 hPa WSW 29.8 km/h 29.8 km/h 71 % 0 mm 0.0 W/m2 CLR
05:15 -12.3 °C -15.1 °C 34567.7 hPa West 29.8 km/h 29.8 km/h 71 % 0 mm 0.0 W/m2 CLR
05:20 -12.2 °C -14.9 °C 34567.7 hPa West 35.7 km/h 35.7 km/h 71 % 0 mm 0.0 W/m2 CLR
05:25 -12.1 °C -14.9 °C 34567.7 hPa WNW 32.8 km/h 32.8 km/h 71 % 0 mm 0.0 W/m2 CLR
05:30 -12.1 °C -14.8 °C 34567.7 hPa WNW 29.8 km/h 29.8 km/h 72 % 0 mm 0.0 W/m2 CLR
05:35 -12.1 °C -14.8 °C 34567.7 hPa West 29.8 km/h 29.8 km/h 72 % 0 mm 0.0 W/m2 CLR
05:40 -12.1 °C -14.7 °C 34567.7 hPa WSW 29.8 km/h 29.8 km/h 72 % 0 mm 0.0 W/m2 CLR
05:45 -12 °C -14.7 °C 34567.7 hPa West 35.7 km/h 35.7 km/h 72 % 0 mm 0.0 W/m2 CLR
05:50 -12.1 °C -14.6 °C 34554.1 hPa WNW 29.8 km/h 29.8 km/h 73 % 0 mm 0.0 W/m2 CLR
05:55 -12.1 °C -14.6 °C 34567.7 hPa WNW 38.8 km/h 38.8 km/h 73 % 0 mm 0.0 W/m2 CLR
06:00 -12.1 °C -14.6 °C 34567.7 hPa West 29.8 km/h 29.8 km/h 73 % 0 mm 0.0 W/m2 CLR
06:05 -12.1 °C -14.6 °C 34567.7 hPa West 26.9 km/h 26.9 km/h 73 % 0 mm 0.0 W/m2 CLR
06:10 -12.1 °C -14.6 °C 34567.7 hPa WNW 28.5 km/h 28.5 km/h 73 % 0 mm 0.0 W/m2 CLR
06:15 -12.1 °C -14.6 °C 34567.7 hPa NNW 35.7 km/h 35.7 km/h 74 % 0 mm 0.0 W/m2 CLR
06:20 -12.1 °C -14.6 °C 34554.1 hPa NW 29.8 km/h 29.8 km/h 74 % 0 mm 0.0 W/m2 CLR
06:25 -12.2 °C -14.6 °C 34567.7 hPa West 29.8 km/h 29.8 km/h 74 % 0 mm 0.0 W/m2 CLR
06:30 -12.2 °C -14.5 °C 34567.7 hPa West 32.8 km/h 32.8 km/h 75 % 0 mm 0.0 W/m2 CLR
06:35 -12.2 °C -14.6 °C 34567.7 hPa NW 53.6 km/h 53.6 km/h 75 % 0 mm 0.0 W/m2 CLR
06:40 -12.2 °C -14.6 °C 34567.7 hPa WNW 47.6 km/h 47.6 km/h 75 % 0 mm 0.0 W/m2 CLR
06:45 -12.3 °C -14.6 °C 34567.7 hPa NW 36.2 km/h 36.2 km/h 76 % 0 mm 0.0 W/m2 CLR
06:50 -12.4 °C -14.6 °C 34567.7 hPa NW 44.7 km/h 44.7 km/h 76 % 0 mm 0.0 W/m2 CLR
06:55 -12.4 °C -14.6 °C 34567.7 hPa WNW 38.8 km/h 38.8 km/h 76 % 0 mm 0.0 W/m2 CLR
07:00 -12.4 °C -14.6 °C 34567.7 hPa WNW 32.8 km/h 32.8 km/h 77 % 0 mm 0.0 W/m2 CLR
07:05 -12.5 °C -14.6 °C 34567.7 hPa WNW 31.1 km/h 31.1 km/h 77 % 0 mm 0.0 W/m2 CLR
07:10 -12.5 °C -14.6 °C 34577.8 hPa WNW 32.8 km/h 32.8 km/h 77 % 0 mm 0.0 W/m2 CLR
07:15 -12.5 °C -14.6 °C 34577.8 hPa WNW 35.7 km/h 35.7 km/h 77 % 0 mm 0.0 W/m2 CLR
07:20 -12.5 °C -14.6 °C 34577.8 hPa WNW 41.7 km/h 41.7 km/h 77 % 0 mm 0.0 W/m2 CLR
07:25 -12.6 °C -14.7 °C 34577.8 hPa WNW 44.7 km/h 44.7 km/h 77 % 0 mm 0.0 W/m2 CLR
07:30 -12.6 °C -14.7 °C 34591.4 hPa NW 41.4 km/h 41.4 km/h 77 % 0 mm 0.0 W/m2 OVC
07:35 -12.6 °C -14.7 °C 34591.4 hPa NW 41.7 km/h 41.7 km/h 77 % 0 mm 0.0 W/m2 OVC
07:40 -12.6 °C -14.7 °C 34591.4 hPa WNW 38.8 km/h 38.8 km/h 77 % 0 mm 0.0 W/m2 OVC
07:45 -12.6 °C -14.8 °C 34591.4 hPa WNW 33.6 km/h 33.6 km/h 77 % 0 mm 5.0 W/m2 OVC
07:50 -12.6 °C -14.8 °C 34591.4 hPa West 35.7 km/h 35.7 km/h 77 % 0 mm 9.0 W/m2 BKN
07:55 -12.6 °C -14.8 °C 34601.5 hPa WNW 35.7 km/h 35.7 km/h 77 % 0 mm 11.0 W/m2 BKN
08:00 -12.7 °C -14.8 °C 34601.5 hPa WNW 35.7 km/h 35.7 km/h 77 % 0 mm 12.0 W/m2 BKN
08:05 -12.7 °C -14.8 °C 34601.5 hPa NW 38.8 km/h 38.8 km/h 77 % 0 mm 14.0 W/m2 BKN
08:10 -12.7 °C -14.9 °C 34601.5 hPa WNW 32.8 km/h 32.8 km/h 77 % 0 mm 18.0 W/m2 BKN
08:15 -12.7 °C -14.9 °C 34601.5 hPa WNW 38.8 km/h 38.8 km/h 77 % 0 mm 39.0 W/m2 BKN
08:20 -12.7 °C -14.8 °C 34611.7 hPa WNW 23.8 km/h 23.8 km/h 77 % 0 mm 72.0 W/m2 FEW
08:25 -12.6 °C -14.8 °C 34611.7 hPa West 29.8 km/h 29.8 km/h 76 % 0 mm 90.0 W/m2 CLR
08:30 -12.5 °C -14.8 °C 34611.7 hPa WNW 29.8 km/h 29.8 km/h 75 % 0 mm 88.0 W/m2 CLR
08:35 -12.4 °C -14.8 °C 34611.7 hPa WNW 32.8 km/h 32.8 km/h 75 % 0 mm 95.0 W/m2 CLR
08:36 -12.4 °C -14.7 °C 34611.7 hPa West 38.8 km/h 38.8 km/h 75 % 0 mm 95.0 W/m2 CLR
08:41 -12.4 °C -14.8 °C 34611.7 hPa WNW 32.8 km/h 32.8 km/h 74 % 0 mm 69.0 W/m2 CLR
08:46 -12.4 °C -14.8 °C 34611.7 hPa WNW 38.8 km/h 38.8 km/h 74 % 0 mm 51.0 W/m2 FEW
08:51 -12.4 °C -14.9 °C 34611.7 hPa WNW 47.6 km/h 47.6 km/h 74 % 0 mm 63.0 W/m2 SCT
08:56 -12.4 °C -14.9 °C 34611.7 hPa WNW 38.8 km/h 38.8 km/h 74 % 0 mm 76.0 W/m2 SCT
09:01 -12.4 °C -14.9 °C 34611.7 hPa NW 38.8 km/h 38.8 km/h 74 % 0 mm 70.0 W/m2 FEW
09:06 -12.4 °C -14.9 °C 34611.7 hPa NW 35.7 km/h 35.7 km/h 73 % 0 mm 62.0 W/m2 FEW
09:11 -12.4 °C -14.8 °C 34611.7 hPa NW 41.7 km/h 41.7 km/h 74 % 0 mm 67.0 W/m2 SCT
09:16 -12.4 °C -14.8 °C 34611.7 hPa WNW 38.8 km/h 38.8 km/h 74 % 0 mm 69.0 W/m2 FEW
09:21 -12.4 °C -14.8 °C 34625.2 hPa WNW 32.8 km/h 32.8 km/h 74 % 0 mm 70.0 W/m2 FEW
09:26 -12.4 °C -14.9 °C 34625.2 hPa WNW 32.8 km/h 32.8 km/h 74 % 0 mm 60.0 W/m2 FEW
09:31 -12.4 °C -15 °C 34625.2 hPa WNW 38.8 km/h 38.8 km/h 73 % 0 mm 51.0 W/m2 SCT
09:36 -12.4 °C -14.9 °C 34625.2 hPa WNW 32.8 km/h 32.8 km/h 74 % 0 mm 42.0 W/m2 SCT
09:41 -12.4 °C -14.9 °C 34625.2 hPa WNW 29.8 km/h 29.8 km/h 74 % 0 mm 40.0 W/m2 BKN
09:46 -12.4 °C -14.9 °C 34611.7 hPa West 26.9 km/h 26.9 km/h 74 % 0 mm 51.0 W/m2 BKN
09:51 -12.4 °C -14.9 °C 34611.7 hPa West 29.8 km/h 29.8 km/h 74 % 0 mm 44.0 W/m2 SCT
09:56 -12.4 °C -14.9 °C 34611.7 hPa WSW 26.9 km/h 26.9 km/h 74 % 0 mm 33.0 W/m2 BKN
10:01 -12.4 °C -14.9 °C 34611.7 hPa West 20.9 km/h 20.9 km/h 74 % 0 mm 33.0 W/m2 BKN
10:06 -12.4 °C -14.9 °C 34611.7 hPa West 29.8 km/h 29.8 km/h 74 % 0 mm 33.0 W/m2 BKN
10:11 -12.4 °C -14.8 °C 34611.7 hPa West 20.9 km/h 20.9 km/h 75 % 0 mm 40.0 W/m2 BKN
10:16 -12.4 °C -14.8 °C 34611.7 hPa West 33.6 km/h 33.6 km/h 75 % 0 mm 70.0 W/m2 BKN
10:21 -12.4 °C -14.8 °C 34611.7 hPa West 35.7 km/h 35.7 km/h 75 % 0 mm 104.0 W/m2 FEW
10:26 -12.4 °C -14.7 °C 34611.7 hPa West 32.8 km/h 32.8 km/h 75 % 0 mm 179.0 W/m2 CLR
10:31 -12.3 °C -14.7 °C 34611.7 hPa West 38.8 km/h 38.8 km/h 75 % 0 mm 181.0 W/m2 CLR
10:36 -12.2 °C -14.6 °C 34611.7 hPa West 35.7 km/h 35.7 km/h 75 % 0 mm 151.0 W/m2 CLR
10:41 -12.2 °C -14.6 °C 34611.7 hPa West 38.8 km/h 38.8 km/h 75 % 0 mm 169.0 W/m2 CLR
10:46 -12.2 °C -14.7 °C 34611.7 hPa West 32.8 km/h 32.8 km/h 74 % 0 mm 199.0 W/m2 CLR
10:51 -12.2 °C -14.6 °C 34625.2 hPa West 35.7 km/h 35.7 km/h 74 % 0 mm 142.0 W/m2 CLR
10:56 -12.2 °C -14.6 °C 34625.2 hPa WNW 32.8 km/h 32.8 km/h 74 % 0 mm 111.0 W/m2 CLR
11:01 -12.2 °C -14.6 °C 34625.2 hPa WNW 41.7 km/h 41.7 km/h 74 % 0 mm 104.0 W/m2 CLR
11:06 -12.2 °C -14.6 °C 34625.2 hPa West 35.7 km/h 35.7 km/h 74 % 0 mm 102.0 W/m2 CLR
11:11 -12.2 °C -14.5 °C 34625.2 hPa WNW 28.5 km/h 28.5 km/h 75 % 0 mm 151.0 W/m2 CLR
11:16 -12.1 °C -14.6 °C 34625.2 hPa WNW 35.7 km/h 35.7 km/h 74 % 0 mm 237.0 W/m2 CLR
11:21 -12 °C -14.3 °C 34625.2 hPa WNW 29.8 km/h 29.8 km/h 75 % 0 mm 220.0 W/m2 CLR
11:26 -12 °C -14.3 °C 34625.2 hPa NW 36.2 km/h 36.2 km/h 75 % 0 mm 165.0 W/m2 CLR
11:31 -12 °C -14.3 °C 34625.2 hPa WNW 29.8 km/h 29.8 km/h 75 % 0 mm 151.0 W/m2 CLR
11:36 -12 °C -14.3 °C 34625.2 hPa NNW 35.7 km/h 35.7 km/h 75 % 0 mm 167.0 W/m2 CLR
11:41 -12 °C -14.3 °C 34625.2 hPa NW 31.1 km/h 31.1 km/h 76 % 0 mm 185.0 W/m2 CLR
11:46 -12.1 °C -14.3 °C 34635.4 hPa NW 44.7 km/h 44.7 km/h 76 % 0 mm 220.0 W/m2 CLR
11:51 -12.1 °C -14.1 °C 34635.4 hPa NNW 38.8 km/h 38.8 km/h 78 % 0 mm 232.0 W/m2 CLR
11:56 -12.1 °C -14.1 °C 34635.4 hPa NW 38.8 km/h 38.8 km/h 79 % 0 mm 295.0 W/m2 CLR
12:01 -12.1 °C -13.9 °C 34635.4 hPa WNW 41.7 km/h 41.7 km/h 80 % 0 mm 338.0 W/m2 CLR
12:06 -12.1 °C -13.9 °C 34635.4 hPa NW 35.7 km/h 35.7 km/h 80 % 0 mm 367.0 W/m2 CLR
12:11 -12.1 °C -13.8 °C 34635.4 hPa WNW 38.8 km/h 38.8 km/h 80 % 0 mm 390.0 W/m2 CLR
12:16 -11.9 °C -13.7 °C 34635.4 hPa NW 33.6 km/h 33.6 km/h 81 % 0 mm 554.0 W/m2 CLR
12:21 -11.8 °C -13.7 °C 34635.4 hPa NW 41.7 km/h 41.7 km/h 80 % 0 mm 438.0 W/m2 CLR
12:26 -11.9 °C -13.7 °C 34635.4 hPa NW 32.8 km/h 32.8 km/h 80 % 0 mm 373.0 W/m2 CLR
12:31 -11.8 °C -13.7 °C 34635.4 hPa NW 32.8 km/h 32.8 km/h 80 % 0 mm 339.0 W/m2 CLR
12:36 -11.8 °C -13.7 °C 34635.4 hPa NW 33.6 km/h 33.6 km/h 79 % 0 mm 336.0 W/m2 CLR
12:41 -11.8 °C -13.7 °C 34635.4 hPa NW 35.7 km/h 35.7 km/h 79 % 0 mm 260.0 W/m2 CLR
12:46 -11.7 °C -13.7 °C 34635.4 hPa WNW 29.8 km/h 29.8 km/h 79 % 0 mm 257.0 W/m2 CLR
12:51 -11.6 °C -13.7 °C 34635.4 hPa NW 35.7 km/h 35.7 km/h 78 % 0 mm 239.0 W/m2 CLR
12:56 -11.7 °C -13.7 °C 34635.4 hPa WNW 23.8 km/h 23.8 km/h 78 % 0 mm 287.0 W/m2 CLR
13:01 -11.5 °C -13.4 °C 34635.4 hPa WNW 26.9 km/h 26.9 km/h 79 % 0 mm 438.0 W/m2 CLR
13:06 -11.3 °C -13.4 °C 34625.2 hPa NNW 29.8 km/h 29.8 km/h 77 % 0 mm 438.0 W/m2 CLR
13:11 -11.1 °C -13.3 °C 34625.2 hPa NW 29.8 km/h 29.8 km/h 76 % 0 mm 647.0 W/m2 CLR
13:12 -11.1 °C -13.3 °C 34625.2 hPa NW 26.9 km/h 26.9 km/h 76 % 0 mm 647.0 W/m2 CLR
13:17 -10.8 °C -13.2 °C 34625.2 hPa NNW 29.8 km/h 29.8 km/h 75 % 0 mm 921.0 W/m2 CLR
13:22 -10.8 °C -13.4 °C 34625.2 hPa NW 29.8 km/h 29.8 km/h 73 % 0 mm 367.0 W/m2 CLR
13:27 -11 °C -13.7 °C 34625.2 hPa NNW 35.7 km/h 35.7 km/h 72 % 0 mm 339.0 W/m2 CLR
13:32 -10.9 °C -13.6 °C 34625.2 hPa NNW 26.9 km/h 26.9 km/h 73 % 0 mm 587.0 W/m2 CLR
13:37 -10.9 °C -13.5 °C 34611.7 hPa NW 29.8 km/h 29.8 km/h 73 % 0 mm 568.0 W/m2 CLR
13:42 -10.7 °C -13.3 °C 34611.7 hPa NW 28.5 km/h 28.5 km/h 73 % 0 mm 610.0 W/m2 CLR
13:47 -10.6 °C -13.4 °C 34611.7 hPa NW 29.8 km/h 29.8 km/h 71 % 0 mm 615.0 W/m2 CLR
13:52 -10.6 °C -13.4 °C 34611.7 hPa NW 20.9 km/h 20.9 km/h 71 % 0 mm 531.0 W/m2 CLR
13:57 -10.4 °C -13.4 °C 34601.5 hPa NW 23.8 km/h 23.8 km/h 70 % 0 mm 617.0 W/m2 CLR
14:02 -10.4 °C -13.4 °C 34601.5 hPa WNW 15.6 km/h 15.6 km/h 70 % 0 mm 392.0 W/m2 CLR
14:07 -10.4 °C -13.6 °C 34601.5 hPa NW 20.8 km/h 20.8 km/h 69 % 0 mm 390.0 W/m2 CLR
14:12 -10.4 °C -13.7 °C 34601.5 hPa WNW 9 km/h 9 km/h 68 % 0 mm 276.0 W/m2 CLR
14:17 -10.5 °C -13.6 °C 34601.5 hPa NW 20.9 km/h 20.9 km/h 69 % 0 mm 290.0 W/m2 CLR
14:22 -10.4 °C -13.5 °C 34601.5 hPa West 9 km/h 9 km/h 69 % 0 mm 309.0 W/m2 CLR
14:27 -10.4 °C -13.6 °C 34601.5 hPa NNW 9 km/h 9 km/h 69 % 0 mm 218.0 W/m2 CLR
14:32 -10.4 °C -13.4 °C 34601.5 hPa NW 9 km/h 9 km/h 70 % 0 mm 155.0 W/m2 CLR
14:37 -10.5 °C -13.6 °C 34601.5 hPa NW 23.8 km/h 23.8 km/h 69 % 0 mm 139.0 W/m2 CLR
14:42 -10.5 °C -13.6 °C 34601.5 hPa NW 20.9 km/h 20.9 km/h 69 % 0 mm 160.0 W/m2 CLR
14:47 -10.5 °C -13.4 °C 34601.5 hPa NW 20.9 km/h 20.9 km/h 70 % 0 mm 132.0 W/m2 CLR
14:52 -10.4 °C -13.6 °C 34591.4 hPa NNW 9 km/h 9 km/h 69 % 0 mm 123.0 W/m2 CLR
14:57 -10.4 °C -13.5 °C 34591.4 hPa NW 17.9 km/h 18.8 km/h 69 % 0 mm 163.0 W/m2 CLR
15:02 -10.4 °C -13.6 °C 34591.4 hPa NW 25.9 km/h 25.9 km/h 69 % 0 mm 181.0 W/m2 CLR
15:07 -10.5 °C -13.6 °C 34591.4 hPa NNW 20.9 km/h 20.9 km/h 69 % 0 mm 178.0 W/m2 CLR
15:12 -10.4 °C -13.5 °C 34591.4 hPa NNW 6 km/h 6 km/h 69 % 0 mm 220.0 W/m2 CLR
15:17 -10.4 °C -13.5 °C 34591.4 hPa North 9 km/h   69 % 0 mm 207.0 W/m2 CLR
15:22 -10.3 °C -13.6 °C 34591.4 hPa NW 20.9 km/h 20.9 km/h 68 % 0 mm 350.0 W/m2 CLR
15:27 -10.2 °C -13.3 °C 34577.8 hPa NNW 6 km/h 6 km/h 69 % 0 mm 306.0 W/m2 CLR
15:32 -10.1 °C -13.4 °C 34577.8 hPa NNW 23.8 km/h 23.8 km/h 67 % 0 mm 267.0 W/m2 CLR
15:37 -10.1 °C -13.4 °C 34577.8 hPa West 17.9 km/h 17.9 km/h 67 % 0 mm 260.0 W/m2 CLR
15:42 -9.9 °C -13.3 °C 34577.8 hPa SW 15 km/h 15 km/h 67 % 0 mm 397.0 W/m2 CLR
15:47 -9.9 °C -13.3 °C 34577.8 hPa West 10.3 km/h 10.3 km/h 67 % 0 mm 320.0 W/m2 CLR
15:52 -9.9 °C -13.4 °C 34577.8 hPa West 3.1 km/h   66 % 0 mm 313.0 W/m2 CLR
15:57 -9.8 °C -13.3 °C 34567.7 hPa NW 11.9 km/h 11.9 km/h 66 % 0 mm 306.0 W/m2 CLR
16:02 -9.8 °C -13.4 °C 34567.7 hPa Calm     65 % 0 mm 424.0 W/m2 CLR
16:07 -9.7 °C -13.2 °C 34567.7 hPa NNW 25.9 km/h 25.9 km/h 66 % 0 mm 399.0 W/m2 CLR
16:12 -9.6 °C -13.3 °C 34567.7 hPa NW 7.7 km/h 7.7 km/h 64 % 0 mm 378.0 W/m2 CLR
16:17 -9.6 °C -13.4 °C 34554.1 hPa WNW 20.9 km/h 20.9 km/h 63 % 0 mm 436.0 W/m2 CLR
16:22 -9.5 °C -13.4 °C 34554.1 hPa Calm     63 % 0 mm 406.0 W/m2 CLR
16:27 -9.3 °C -13.3 °C 34554.1 hPa West 3.1 km/h 3.1 km/h 62 % 0 mm 378.0 W/m2 CLR
16:32 -9.3 °C -13.2 °C 34554.1 hPa West 5.1 km/h 5.1 km/h 63 % 0 mm 262.0 W/m2 CLR
16:38 -9.3 °C -13.3 °C 34544 hPa NW 11.9 km/h 11.9 km/h 62 % 0 mm 267.0 W/m2 CLR
16:43 -9.1 °C -13.3 °C 34544 hPa West 9 km/h 9 km/h 61 % 0 mm 795.0 W/m2 CLR
16:48 -8.9 °C -13.1 °C 34544 hPa West 9 km/h 9 km/h 61 % 0 mm 729.0 W/m2 CLR
16:53 -8.9 °C -13.4 °C 34533.8 hPa West 9 km/h   59 % 0 mm 427.0 W/m2 CLR
16:58 -8.8 °C -13.3 °C 34533.8 hPa NNW 33.6 km/h 33.6 km/h 59 % 0 mm 506.0 W/m2 CLR
17:03 -8.8 °C -13.2 °C 34533.8 hPa West 17.9 km/h   59 % 0 mm 582.0 W/m2 CLR
17:08 -8.6 °C -13.2 °C 34533.8 hPa West 11.9 km/h 11.9 km/h 58 % 0 mm 570.0 W/m2 CLR
17:13 -8.6 °C -13.2 °C 34533.8 hPa WNW 32.8 km/h 32.8 km/h 58 % 0 mm 555.0 W/m2 CLR
17:18 -8.6 °C -13.2 °C 34533.8 hPa WNW 23.8 km/h 23.8 km/h 58 % 0 mm 540.0 W/m2 CLR
17:23 -8.5 °C -13.6 °C 34520.3 hPa WSW 29.8 km/h 29.8 km/h 55 % 0 mm 520.0 W/m2 CLR
17:28 -8.5 °C -13.4 °C 34520.3 hPa NW 29.8 km/h 29.8 km/h 56 % 0 mm 510.0 W/m2 CLR
17:33 -8.4 °C -13.5 °C 34520.3 hPa NW 29.8 km/h   55 % 0 mm 489.0 W/m2 CLR
17:38 -8.3 °C -13.2 °C 34520.3 hPa NW 26.9 km/h 26.9 km/h 56 % 0 mm 476.0 W/m2 CLR
17:43 -8.3 °C -13.6 °C 34520.3 hPa NW 32.8 km/h 32.8 km/h 54 % 0 mm 461.0 W/m2 CLR
17:48 -8.3 °C -13.6 °C 34520.3 hPa NNW 26.9 km/h 26.9 km/h 54 % 0 mm 450.0 W/m2 CLR
17:53 -8.2 °C -13.4 °C 34520.3 hPa West 15 km/h 15 km/h 54 % 0 mm 439.0 W/m2 CLR
17:58 -8.3 °C -13.5 °C 34520.3 hPa West 26.9 km/h 26.9 km/h 54 % 0 mm 424.0 W/m2 CLR
18:03 -8.2 °C -13.3 °C 34510.1 hPa WNW 29.8 km/h 29.8 km/h 55 % 0 mm 410.0 W/m2 CLR
18:08 -8.2 °C -13.3 °C 34510.1 hPa NW 20.8 km/h 20.8 km/h 55 % 0 mm 390.0 W/m2 CLR
18:13 -8.1 °C -13.5 °C 34510.1 hPa NW 29.8 km/h 29.8 km/h 53 % 0 mm 374.0 W/m2 CLR
18:18 -8.1 °C -13.3 °C 34510.1 hPa WNW 33.6 km/h 33.6 km/h 54 % 0 mm 357.0 W/m2 CLR
18:23 -8.1 °C -13.5 °C 34510.1 hPa NW 20.9 km/h 20.9 km/h 53 % 0 mm 345.0 W/m2 CLR
18:28 -8 °C -13.6 °C 34510.1 hPa WNW 29.8 km/h 29.8 km/h 52 % 0 mm 327.0 W/m2 CLR
18:33 -8.1 °C -13.6 °C 34510.1 hPa WNW 29.8 km/h 29.8 km/h 52 % 0 mm 313.0 W/m2 CLR
18:38 -8.1 °C -13.6 °C 34510.1 hPa WNW 20.8 km/h 20.8 km/h 52 % 0 mm 292.0 W/m2 CLR
18:43 -8.1 °C -13.4 °C 34510.1 hPa NW 6 km/h 6 km/h 53 % 0 mm 278.0 W/m2 CLR
18:48 -8 °C -13.6 °C 34496.6 hPa WNW 29.8 km/h 29.8 km/h 52 % 0 mm 264.0 W/m2 CLR
18:53 -7.9 °C -13.8 °C 34496.6 hPa NW 15.6 km/h 15.6 km/h 50 % 0 mm 246.0 W/m2 CLR
18:58 -8 °C -13.8 °C 34496.6 hPa West 23.8 km/h 23.8 km/h 50 % 0 mm 225.0 W/m2 CLR
19:03 -7.9 °C -13.8 °C 34496.6 hPa WNW 23.8 km/h 23.8 km/h 50 % 0 mm 204.0 W/m2 CLR
19:08 -8 °C -13.7 °C 34496.6 hPa WNW 23.8 km/h 23.8 km/h 51 % 0 mm 186.0 W/m2 CLR
19:13 -7.9 °C -13.8 °C 34496.6 hPa WNW 23.3 km/h 23.3 km/h 50 % 0 mm 84.0 W/m2 CLR
19:18 -8.1 °C -14.3 °C 34496.6 hPa WNW 9 km/h 9 km/h 48 % 0 mm 37.0 W/m2 FEW
19:23 -8.2 °C -14.2 °C 34496.6 hPa NNW 23.3 km/h 23.3 km/h 49 % 0 mm 132.0 W/m2 FEW
19:28 -8.1 °C -14.1 °C 34510.1 hPa NW 6 km/h 6 km/h 49 % 0 mm 116.0 W/m2 CLR
19:33 -8.1 °C -14.3 °C 34510.1 hPa NNW 31.1 km/h 31.1 km/h 48 % 0 mm 98.0 W/m2 CLR
19:38 -8.1 °C -14.3 °C 34510.1 hPa NNW 44.7 km/h 44.7 km/h 48 % 0 mm 83.0 W/m2 FEW
19:43 -8.2 °C -14.3 °C 34510.1 hPa NNW 29.8 km/h 29.8 km/h 48 % 0 mm 58.0 W/m2 FEW
19:48 -8.2 °C -14.4 °C 34510.1 hPa NNW 38.8 km/h 38.8 km/h 48 % 0 mm 49.0 W/m2 SCT
19:53 -8.3 °C -14.5 °C 34510.1 hPa NW 28.5 km/h 28.5 km/h 48 % 0 mm 39.0 W/m2 BKN
19:58 -8.4 °C -14.4 °C 34510.1 hPa NW 29.8 km/h 29.8 km/h 49 % 0 mm 30.0 W/m2 BKN
20:04 -8.4 °C -14.4 °C 34520.3 hPa NW 29.8 km/h 29.8 km/h 49 % 0 mm 21.0 W/m2 BKN
20:09 -8.6 °C -14.6 °C 34520.3 hPa NW 29.8 km/h 29.8 km/h 49 % 0 mm 16.0 W/m2 BKN
20:14 -8.7 °C -14.5 °C 34520.3 hPa NNW 29.8 km/h 29.8 km/h 50 % 0 mm 14.0 W/m2 BKN
20:19 -8.8 °C -14.4 °C 34520.3 hPa WNW 29.8 km/h 29.8 km/h 51 % 0 mm 12.0 W/m2 BKN
20:24 -8.8 °C -14.5 °C 34520.3 hPa NNW 35.7 km/h 35.7 km/h 51 % 0 mm 9.0 W/m2 BKN
20:29 -8.9 °C -14.3 °C 34533.8 hPa NW 44.1 km/h 44.1 km/h 52 % 0 mm 5.0 W/m2 OVC
20:34 -8.9 °C -14.4 °C 34533.8 hPa NNW 36.2 km/h 36.2 km/h 52 % 0 mm 0.0 W/m2 OVC
20:39 -9 °C -14.3 °C 34533.8 hPa WNW 38.8 km/h 38.8 km/h 53 % 0 mm 0.0 W/m2 CLR
20:44 -9.1 °C -14.3 °C 34533.8 hPa NNW 44.7 km/h 44.7 km/h 53 % 0 mm 0.0 W/m2 CLR
20:49 -9.1 °C -14.3 °C 34533.8 hPa NW 38.8 km/h 38.8 km/h 54 % 0 mm 0.0 W/m2 CLR
20:54 -9.2 °C -14.3 °C 34533.8 hPa WNW 29.8 km/h 29.8 km/h 54 % 0 mm 0.0 W/m2 CLR
20:59 -9.2 °C -14.3 °C 34533.8 hPa WNW 32.8 km/h 32.8 km/h 54 % 0 mm 0.0 W/m2 CLR
21:04 -9.3 °C -14.4 °C 34533.8 hPa NW 44.1 km/h 44.1 km/h 54 % 0 mm 0.0 W/m2 CLR
21:09 -9.3 °C -14.5 °C 34533.8 hPa NW 28.5 km/h 28.5 km/h 54 % 0 mm 0.0 W/m2 CLR
21:14 -9.4 °C -14.4 °C 34544 hPa WNW 44.7 km/h 44.7 km/h 55 % 0 mm 0.0 W/m2 CLR
21:19 -9.6 °C -14.4 °C 34544 hPa WNW 44.7 km/h 44.7 km/h 56 % 0 mm 0.0 W/m2 CLR
21:24 -9.6 °C -14.3 °C 34554.1 hPa NNW 41.7 km/h 41.7 km/h 57 % 0 mm 0.0 W/m2 CLR
21:29 -9.7 °C -14.3 °C 34554.1 hPa NW 47.6 km/h 47.6 km/h 58 % 0 mm 0.0 W/m2 CLR
21:34 -9.8 °C -14.3 °C 34554.1 hPa WNW 38.8 km/h 38.8 km/h 58 % 0 mm 0.0 W/m2 CLR
21:39 -9.8 °C -14.2 °C 34567.7 hPa WNW 26.9 km/h 26.9 km/h 59 % 0 mm 0.0 W/m2 CLR
21:44 -9.9 °C -14.2 °C 34554.1 hPa WNW 44.7 km/h 44.7 km/h 60 % 0 mm 0.0 W/m2 CLR
21:49 -10.1 °C -14.1 °C 34554.1 hPa NW 36.2 km/h 36.2 km/h 61 % 0 mm 0.0 W/m2 CLR
21:54 -10.1 °C -14.2 °C 34554.1 hPa WNW 35.7 km/h 35.7 km/h 61 % 0 mm 0.0 W/m2 CLR
21:59 -10.2 °C -14.3 °C 34567.7 hPa WNW 44.7 km/h 44.7 km/h 61 % 0 mm 0.0 W/m2 CLR
22:04 -10.3 °C -14.3 °C 34567.7 hPa WNW 47.6 km/h 47.6 km/h 62 % 0 mm 0.0 W/m2 CLR
22:09 -10.4 °C -14.3 °C 34567.7 hPa WNW 50.7 km/h 50.7 km/h 62 % 0 mm 0.0 W/m2 CLR
22:14 -10.4 °C -14.3 °C 34567.7 hPa WNW 47.6 km/h 47.6 km/h 63 % 0 mm 0.0 W/m2 CLR
22:19 -10.5 °C -14.3 °C 34567.7 hPa WNW 44.7 km/h 44.7 km/h 63 % 0 mm 0.0 W/m2 CLR
22:24 -10.6 °C -14.3 °C 34567.7 hPa West 44.7 km/h 44.7 km/h 64 % 0 mm 0.0 W/m2 CLR
22:29 -10.7 °C -14.3 °C 34567.7 hPa West 32.8 km/h 32.8 km/h 64 % 0 mm 0.0 W/m2 CLR
22:34 -10.7 °C -14.4 °C 34577.8 hPa NW 35.7 km/h 35.7 km/h 64 % 0 mm 0.0 W/m2 CLR
22:39 -10.7 °C -14.3 °C 34577.8 hPa WNW 29.8 km/h 29.8 km/h 65 % 0 mm 0.0 W/m2 CLR
22:44 -10.8 °C -14.3 °C 34567.7 hPa West 44.7 km/h 44.7 km/h 65 % 0 mm 0.0 W/m2 CLR
22:49 -10.8 °C -14.4 °C 34567.7 hPa WNW 35.7 km/h 35.7 km/h 65 % 0 mm 0.0 W/m2 CLR
22:54 -10.9 °C -14.3 °C 34577.8 hPa NW 32.8 km/h 32.8 km/h 66 % 0 mm 0.0 W/m2 CLR
22:59 -10.9 °C -14.3 °C 34577.8 hPa West 23.8 km/h 23.8 km/h 66 % 0 mm 0.0 W/m2 CLR
23:04 -10.9 °C -14.3 °C 34577.8 hPa West 50.7 km/h 50.7 km/h 66 % 0 mm 0.0 W/m2 CLR
23:09 -10.9 °C -14.3 °C 34577.8 hPa NW 50.7 km/h 50.7 km/h 66 % 0 mm 0.0 W/m2 CLR
23:14 -10.9 °C -14.3 °C 34577.8 hPa WNW 29.8 km/h 29.8 km/h 67 % 0 mm 0.0 W/m2 CLR
23:19 -11 °C -14.3 °C 34577.8 hPa WNW 35.7 km/h 35.7 km/h 67 % 0 mm 0.0 W/m2 CLR
23:24 -11 °C -14.3 °C 34591.4 hPa West 35.7 km/h 35.7 km/h 67 % 0 mm 0.0 W/m2 CLR
23:29 -11 °C -14.3 °C 34591.4 hPa West 32.8 km/h 32.8 km/h 67 % 0 mm 0.0 W/m2 CLR
23:34 -11.1 °C -14.2 °C 34591.4 hPa WNW 23.8 km/h 23.8 km/h 68 % 0 mm 0.0 W/m2 CLR
23:39 -11.1 °C -14.3 °C 34591.4 hPa WSW 35.7 km/h 35.7 km/h 68 % 0 mm 0.0 W/m2 CLR
23:44 -11.1 °C -14.3 °C 34591.4 hPa West 41.7 km/h 41.7 km/h 68 % 0 mm 0.0 W/m2 CLR
23:49 -11.2 °C -14.2 °C 34577.8 hPa West 32.8 km/h 32.8 km/h 69 % 0 mm 0.0 W/m2 CLR
23:54 -11.2 °C -14.3 °C 34577.8 hPa West 35.7 km/h 35.7 km/h 69 % 0 mm 0.0 W/m2 CLR
23:59 -11.3 °C -14.3 °C 34591.4 hPa West 31.1 km/h 31.1 km/h 69 % 0 mm 0.0 W/m2 CLR
Lo Temps de Massalio
Compliments of Weather Underground - 1.25 mb